Terminal Aerodrome Forecast
Issued by NWS King Salmon, AK

Home | Current Version | Previous Version | Text Only | Print | Product List | Glossary On
Versions: 1 2 3 4 5 6 7 8 9 10 11 12 13 14 15 16 17 18 19 20 21 22 23 24
000
FTAK31 PANC 261738
TAFAKN
TAF
PAKN 261738Z 2618/2718 01011KT P6SM SCT045 OVC060
     FM270300 05015KT 6SM -SN OVC035 WS020/13030KT
     FM271500 06011KT 6SM -SN OVC035=

USA.gov is the U.S. government's official web portal to all federal, state and local government web resources and services.